Time;durP1;ratioP1;P1;durP2;ratioP2;P2;SDS_P1;SDS_P2;PMS_P1;PMS_P2;Temp;Humidity;BMP_temperature;BMP_pressure;BME280_temperature;BME280_humidity;BME280_pressure;Samples;Min_cycle;Max_cycle;Signal;HPM_P1;HPM_P2
2022/03/26 00:01:23;;;;;;;71.20;31.17;;;;;;;;;;4994622;28;20031;-57
2022/03/26 00:03:49;;;;;;;62.25;26.10;;;;;;;;;;4995154;28;20036;-54
2022/03/26 00:06:19;;;;;;;48.13;23.70;;;;;;;;;;4995248;28;20476;-55
2022/03/26 00:08:50;;;;;;;48.45;24.05;;;;;;;;;;4994979;28;20019;-59
2022/03/26 00:11:17;;;;;;;52.90;23.02;;;;;;;;;;4994523;28;20034;-52
2022/03/26 00:13:45;;;;;;;49.38;23.55;;;;;;;;;;4994896;28;20026;-53
2022/03/26 00:16:14;;;;;;;56.75;24.20;;;;;;;;;;4994198;28;20105;-60
2022/03/26 00:18:43;;;;;;;50.85;23.60;;;;;;;;;;4995246;28;20027;-59
2022/03/26 00:21:10;;;;;;;46.17;20.95;;;;;;;;;;4994281;28;20534;-52
2022/03/26 00:23:37;;;;;;;42.97;19.75;;;;;;;;;;4994780;28;20104;-52
2022/03/26 00:26:03;;;;;;;46.00;19.55;;;;;;;;;;4994974;28;20491;-55
2022/03/26 00:28:29;;;;;;;44.78;22.17;;;;;;;;;;4994320;28;20022;-53
2022/03/26 00:30:55;;;;;;;31.15;15.48;;;;;;;;;;4994910;28;20023;-55
2022/03/26 00:33:21;;;;;;;28.40;14.27;;;;;;;;;;4994767;28;20391;-55
2022/03/26 00:35:47;;;;;;;24.65;13.55;;;;;;;;;;4994358;28;20422;-56
2022/03/26 00:38:14;;;;;;;22.83;12.23;;;;;;;;;;4994881;28;20029;-57
2022/03/26 00:40:41;;;;;;;25.17;12.30;;;;;;;;;;4994798;28;20495;-52
2022/03/26 00:43:07;;;;;;;24.00;11.52;;;;;;;;;;4994323;28;20034;-52
2022/03/26 00:45:35;;;;;;;23.70;11.90;;;;;;;;;;4994542;28;20480;-52
2022/03/26 00:48:01;;;;;;;25.85;11.48;;;;;;;;;;4994343;28;20026;-55
2022/03/26 00:50:28;;;;;;;19.77;11.15;;;;;;;;;;4994126;28;20518;-50
2022/03/26 00:52:54;;;;;;;30.35;12.38;;;;;;;;;;4994548;28;20475;-53
2022/03/26 00:55:20;;;;;;;27.05;12.32;;;;;;;;;;4994440;28;20029;-54
2022/03/26 00:57:46;;;;;;;23.83;11.80;;;;;;;;;;4994231;28;20104;-54
2022/03/26 01:00:13;;;;;;;21.13;12.00;;;;;;;;;;4994575;28;20416;-55
2022/03/26 01:02:39;;;;;;;23.85;10.93;;;;;;;;;;4993836;28;20018;-54
2022/03/26 01:05:05;;;;;;;20.60;10.85;;;;;;;;;;4994412;28;20027;-54
2022/03/26 01:07:32;;;;;;;22.15;10.88;;;;;;;;;;4994853;28;20026;-51
2022/03/26 01:09:58;;;;;;;25.10;10.88;;;;;;;;;;4994003;28;20034;-51
2022/03/26 01:12:25;;;;;;;24.92;10.90;;;;;;;;;;4994308;28;20022;-55
2022/03/26 01:14:51;;;;;;;23.48;11.25;;;;;;;;;;4994411;28;20427;-53
2022/03/26 01:17:18;;;;;;;24.08;11.20;;;;;;;;;;4993656;28;20023;-56
2022/03/26 01:19:44;;;;;;;23.63;11.48;;;;;;;;;;4994041;28;20018;-50
2022/03/26 01:22:10;;;;;;;23.15;11.25;;;;;;;;;;4994225;28;20022;-54
2022/03/26 01:24:37;;;;;;;22.35;11.45;;;;;;;;;;4993894;28;20036;-56
2022/03/26 01:27:03;;;;;;;24.42;11.85;;;;;;;;;;4993929;28;20029;-52
2022/03/26 01:29:29;;;;;;;24.58;11.27;;;;;;;;;;4994228;28;20035;-54
2022/03/26 01:31:56;;;;;;;21.23;11.73;;;;;;;;;;4993797;28;20101;-57
2022/03/26 01:34:26;;;;;;;23.27;12.20;;;;;;;;;;4994331;28;20036;-55
2022/03/26 01:36:53;;;;;;;22.35;12.15;;;;;;;;;;4994156;28;20480;-50
2022/03/26 01:39:20;;;;;;;24.60;11.48;;;;;;;;;;4993463;28;20427;-53
2022/03/26 01:41:47;;;;;;;20.42;10.25;;;;;;;;;;4993941;28;20026;-53
2022/03/26 01:44:13;;;;;;;25.60;11.13;;;;;;;;;;4993773;28;20030;-54
2022/03/26 01:46:49;;;;;;;16.90;9.80;;;;;;;;;;4994134;28;20464;-53
2022/03/26 01:49:16;;;;;;;17.52;9.90;;;;;;;;;;4997700;28;20109;-55
2022/03/26 01:51:42;;;;;;;20.83;9.60;;;;;;;;;;4997581;28;20019;-54
2022/03/26 01:54:09;;;;;;;19.95;10.43;;;;;;;;;;4997846;28;20027;-51
2022/03/26 01:56:35;;;;;;;21.25;10.45;;;;;;;;;;4997269;28;20173;-56
2022/03/26 01:59:02;;;;;;;24.35;10.68;;;;;;;;;;4997831;28;20026;-50
2022/03/26 02:01:28;;;;;;;21.77;11.20;;;;;;;;;;4996024;28;20379;-51
2022/03/26 02:03:54;;;;;;;27.15;14.00;;;;;;;;;;4997604;28;20023;-53
2022/03/26 02:06:22;;;;;;;20.88;10.55;;;;;;;;;;4997323;28;20022;-53
2022/03/26 02:08:49;;;;;;;20.50;10.25;;;;;;;;;;4997518;28;20026;-51
2022/03/26 02:11:15;;;;;;;20.35;11.15;;;;;;;;;;4997509;28;20033;-55
2022/03/26 02:13:54;;;;;;;23.88;11.13;;;;;;;;;;4997131;28;20027;-53
2022/03/26 02:16:22;;;;;;;22.92;11.27;;;;;;;;;;4997627;28;20022;-53
2022/03/26 02:18:48;;;;;;;29.10;12.10;;;;;;;;;;4997068;28;20022;-54
2022/03/26 02:21:15;;;;;;;26.13;12.20;;;;;;;;;;4997020;28;20030;-54
2022/03/26 02:23:42;;;;;;;19.33;9.13;;;;;;;;;;4996971;28;20079;-53
2022/03/26 02:26:08;;;;;;;21.70;11.23;;;;;;;;;;4996824;28;20025;-54
2022/03/26 02:28:35;;;;;;;27.35;11.50;;;;;;;;;;4996452;28;20023;-52
2022/03/26 02:31:01;;;;;;;25.75;11.75;;;;;;;;;;4997197;28;20022;-52
2022/03/26 02:33:27;;;;;;;32.85;13.38;;;;;;;;;;4996413;28;20018;-54
2022/03/26 02:35:54;;;;;;;25.05;10.68;;;;;;;;;;4997328;28;20026;-51
2022/03/26 02:38:23;;;;;;;26.40;12.63;;;;;;;;;;4996715;28;20113;-53
2022/03/26 02:40:49;;;;;;;25.85;10.82;;;;;;;;;;4996572;28;20427;-50
2022/03/26 02:43:15;;;;;;;22.70;9.88;;;;;;;;;;4996590;28;20023;-52
2022/03/26 02:45:45;;;;;;;31.25;12.43;;;;;;;;;;4996873;28;20073;-53
2022/03/26 02:48:12;;;;;;;21.33;9.93;;;;;;;;;;4996783;28;20057;-52
2022/03/26 02:50:40;;;;;;;18.95;10.40;;;;;;;;;;4996820;28;20175;-55
2022/03/26 02:53:06;;;;;;;40.38;13.52;;;;;;;;;;4996753;28;20033;-51
2022/03/26 02:55:32;;;;;;;44.60;19.75;;;;;;;;;;4996352;28;20030;-52
2022/03/26 02:57:58;;;;;;;35.55;16.73;;;;;;;;;;4996333;28;20442;-54
2022/03/26 03:00:24;;;;;;;68.22;25.67;;;;;;;;;;4996374;28;20379;-53
2022/03/26 03:02:51;;;;;;;40.08;19.20;;;;;;;;;;4996067;28;20546;-54
2022/03/26 03:05:17;;;;;;;41.22;19.50;;;;;;;;;;4996088;28;20026;-51
2022/03/26 03:07:43;;;;;;;36.85;17.30;;;;;;;;;;4996544;28;20031;-55
2022/03/26 03:10:10;;;;;;;40.63;17.23;;;;;;;;;;4996172;28;20030;-53
2022/03/26 03:12:36;;;;;;;43.05;15.93;;;;;;;;;;4996613;28;20533;-54
2022/03/26 03:15:02;;;;;;;27.40;14.38;;;;;;;;;;4996314;28;20042;-51
2022/03/26 03:17:28;;;;;;;39.38;14.60;;;;;;;;;;4995768;28;20073;-51
2022/03/26 03:19:54;;;;;;;32.55;13.85;;;;;;;;;;4995990;28;20019;-52
2022/03/26 03:22:20;;;;;;;34.78;15.48;;;;;;;;;;4995942;28;20035;-52
2022/03/26 03:24:47;;;;;;;33.47;13.43;;;;;;;;;;4995611;28;20030;-50
2022/03/26 03:27:13;;;;;;;34.80;15.07;;;;;;;;;;4996218;28;20037;-52
2022/03/26 03:29:39;;;;;;;34.22;15.15;;;;;;;;;;4995480;28;20108;-52
2022/03/26 03:32:05;;;;;;;38.60;15.32;;;;;;;;;;4996072;28;20156;-56
2022/03/26 03:34:32;;;;;;;28.33;14.15;;;;;;;;;;4995657;28;20034;-49
2022/03/26 03:36:58;;;;;;;36.60;16.30;;;;;;;;;;4995630;28;20027;-54
2022/03/26 03:39:24;;;;;;;36.72;16.58;;;;;;;;;;4996113;28;20019;-54
2022/03/26 03:41:50;;;;;;;47.08;19.17;;;;;;;;;;4995635;28;20073;-56
2022/03/26 03:44:16;;;;;;;41.38;19.55;;;;;;;;;;4995503;28;20038;-55
2022/03/26 03:46:42;;;;;;;48.22;20.17;;;;;;;;;;4995781;28;20046;-52
2022/03/26 03:49:09;;;;;;;44.08;22.45;;;;;;;;;;4995709;28;20411;-54
2022/03/26 03:51:35;;;;;;;42.00;20.92;;;;;;;;;;4995120;28;20026;-50
2022/03/26 03:54:01;;;;;;;46.42;20.77;;;;;;;;;;4995602;28;20035;-54
2022/03/26 03:56:27;;;;;;;45.03;20.30;;;;;;;;;;4995033;28;20018;-53
2022/03/26 03:58:53;;;;;;;39.53;19.10;;;;;;;;;;4995574;28;20018;-48
2022/03/26 04:01:21;;;;;;;48.30;21.00;;;;;;;;;;4995149;28;20022;-54
2022/03/26 04:03:47;;;;;;;40.28;19.10;;;;;;;;;;4995160;28;20022;-52
2022/03/26 04:06:13;;;;;;;37.80;17.67;;;;;;;;;;4995159;28;20076;-55
2022/03/26 04:08:40;;;;;;;31.20;12.77;;;;;;;;;;4994989;28;20065;-50
2022/03/26 04:11:06;;;;;;;20.50;10.38;;;;;;;;;;4994723;28;20027;-48
2022/03/26 04:13:32;;;;;;;20.17;9.93;;;;;;;;;;4994641;28;20037;-52
2022/03/26 04:15:58;;;;;;;16.83;9.30;;;;;;;;;;4995252;28;20061;-51
2022/03/26 04:18:24;;;;;;;15.80;8.65;;;;;;;;;;4995116;28;20037;-48
2022/03/26 04:20:52;;;;;;;16.80;8.35;;;;;;;;;;4995367;28;20513;-52
2022/03/26 04:23:19;;;;;;;21.40;9.82;;;;;;;;;;4994779;28;20435;-51
2022/03/26 04:25:45;;;;;;;33.00;14.13;;;;;;;;;;4994694;28;20141;-50
2022/03/26 04:28:12;;;;;;;33.63;14.27;;;;;;;;;;4994953;28;20357;-54
2022/03/26 04:30:38;;;;;;;35.80;18.02;;;;;;;;;;4994820;28;20030;-54
2022/03/26 04:33:04;;;;;;;35.33;17.95;;;;;;;;;;4994571;28;20026;-49
2022/03/26 04:35:31;;;;;;;39.03;19.70;;;;;;;;;;4994938;28;20088;-51
2022/03/26 04:37:57;;;;;;;36.30;19.23;;;;;;;;;;4994881;28;20033;-51
2022/03/26 04:40:24;;;;;;;43.72;19.95;;;;;;;;;;4994217;28;20030;-51
2022/03/26 04:42:50;;;;;;;40.25;19.35;;;;;;;;;;4994735;28;20018;-53
2022/03/26 04:45:16;;;;;;;43.03;19.55;;;;;;;;;;4994493;28;20037;-53
2022/03/26 04:47:43;;;;;;;42.85;19.10;;;;;;;;;;4993976;28;20038;-53
2022/03/26 04:50:09;;;;;;;40.45;20.25;;;;;;;;;;4994679;28;20113;-53
2022/03/26 04:52:36;;;;;;;42.92;20.15;;;;;;;;;;4994594;28;20073;-52
2022/03/26 04:55:03;;;;;;;39.45;19.42;;;;;;;;;;4994066;28;20038;-51
2022/03/26 04:57:29;;;;;;;48.17;19.83;;;;;;;;;;4994349;28;20054;-50
2022/03/26 04:59:55;;;;;;;42.88;19.40;;;;;;;;;;4994216;28;20033;-55
2022/03/26 05:02:21;;;;;;;41.17;18.50;;;;;;;;;;4994150;28;20069;-51
2022/03/26 05:04:48;;;;;;;45.97;19.15;;;;;;;;;;4994037;28;20081;-54
2022/03/26 05:09:59;;;;;;;43.28;20.38;;;;;;;;;;4994232;28;20041;-55
2022/03/26 05:12:25;;;;;;;46.78;22.00;;;;;;;;;;4994334;28;20033;-51
2022/03/26 05:14:51;;;;;;;46.03;21.15;;;;;;;;;;4993748;28;20034;-50
2022/03/26 05:17:17;;;;;;;43.10;19.92;;;;;;;;;;4994546;28;20475;-53
2022/03/26 05:19:43;;;;;;;48.90;19.85;;;;;;;;;;4993926;28;20471;-50
2022/03/26 05:22:09;;;;;;;37.83;18.58;;;;;;;;;;4993848;28;20027;-50
2022/03/26 05:24:36;;;;;;;37.50;19.40;;;;;;;;;;4993941;28;20499;-56
2022/03/26 05:27:03;;;;;;;38.58;17.40;;;;;;;;;;4994137;28;20026;-53
2022/03/26 05:29:29;;;;;;;38.15;18.52;;;;;;;;;;4993459;28;20023;-49
2022/03/26 05:31:55;;;;;;;35.20;17.38;;;;;;;;;;4994145;28;20030;-53
2022/03/26 05:34:21;;;;;;;43.17;19.67;;;;;;;;;;4994024;28;20093;-52
2022/03/26 05:36:48;;;;;;;42.03;20.38;;;;;;;;;;4993536;28;20018;-56
2022/03/26 05:39:14;;;;;;;46.58;23.75;;;;;;;;;;4993765;28;20031;-55
2022/03/26 05:41:40;;;;;;;48.30;24.08;;;;;;;;;;4993828;28;20448;-55
2022/03/26 05:44:06;;;;;;;49.75;24.05;;;;;;;;;;4992704;28;20399;-49
2022/03/26 05:46:32;;;;;;;51.63;27.65;;;;;;;;;;4993927;28;20030;-49
2022/03/26 05:48:59;;;;;;;52.60;23.98;;;;;;;;;;4993851;28;20033;-52
2022/03/26 05:51:25;;;;;;;43.90;21.60;;;;;;;;;;4993420;28;20038;-54
2022/03/26 05:53:51;;;;;;;48.92;22.88;;;;;;;;;;4994497;28;20038;-59
2022/03/26 05:56:17;;;;;;;43.47;21.45;;;;;;;;;;4992916;28;20029;-49
2022/03/26 05:58:43;;;;;;;36.58;19.27;;;;;;;;;;4993673;28;20105;-53
2022/03/26 06:01:10;;;;;;;42.25;21.33;;;;;;;;;;4993147;28;20118;-54
2022/03/26 06:03:36;;;;;;;43.67;20.63;;;;;;;;;;4992319;28;20046;-54
2022/03/26 06:06:02;;;;;;;38.05;20.77;;;;;;;;;;4993610;28;20034;-54
2022/03/26 06:08:28;;;;;;;40.90;21.05;;;;;;;;;;4992803;28;20105;-54
2022/03/26 06:10:55;;;;;;;44.60;22.70;;;;;;;;;;4992114;28;20058;-53
2022/03/26 06:13:21;;;;;;;49.35;23.85;;;;;;;;;;4993811;28;20023;-52
2022/03/26 06:15:47;;;;;;;44.88;23.48;;;;;;;;;;4992624;28;20034;-54
2022/03/26 06:18:13;;;;;;;42.92;22.73;;;;;;;;;;4993788;28;20026;-51
2022/03/26 06:20:39;;;;;;;50.80;23.42;;;;;;;;;;4993766;28;20053;-52
2022/03/26 06:23:07;;;;;;;43.20;22.55;;;;;;;;;;4994243;28;20138;-53
2022/03/26 06:25:34;;;;;;;44.80;23.98;;;;;;;;;;4993354;28;20110;-53
2022/03/26 06:28:00;;;;;;;47.30;23.25;;;;;;;;;;4993131;28;20053;-54
2022/03/26 06:30:26;;;;;;;51.38;24.77;;;;;;;;;;4993512;28;20077;-54
2022/03/26 06:32:53;;;;;;;51.20;25.38;;;;;;;;;;4994251;28;20037;-53
2022/03/26 06:35:19;;;;;;;48.15;24.15;;;;;;;;;;4996840;28;20034;-50
2022/03/26 06:37:45;;;;;;;42.92;23.98;;;;;;;;;;4996892;28;20042;-53
2022/03/26 06:40:12;;;;;;;41.83;22.67;;;;;;;;;;4996494;28;20042;-51
2022/03/26 06:42:38;;;;;;;44.63;24.30;;;;;;;;;;4997016;28;20019;-53
2022/03/26 06:45:04;;;;;;;46.05;22.88;;;;;;;;;;4996918;28;20041;-54
2022/03/26 06:47:31;;;;;;;61.30;27.50;;;;;;;;;;4996561;28;20015;-52
2022/03/26 06:49:57;;;;;;;47.08;26.27;;;;;;;;;;4997437;28;20033;-53
2022/03/26 06:52:24;;;;;;;42.05;22.60;;;;;;;;;;4996630;28;20460;-54
2022/03/26 06:54:50;;;;;;;40.00;23.55;;;;;;;;;;4996668;28;20113;-49
2022/03/26 06:57:16;;;;;;;36.78;19.67;;;;;;;;;;4995989;28;20050;-52
2022/03/26 06:59:43;;;;;;;36.08;19.05;;;;;;;;;;4996332;28;20022;-55
2022/03/26 07:02:09;;;;;;;33.05;17.45;;;;;;;;;;4996318;28;20094;-50
2022/03/26 07:04:35;;;;;;;43.50;19.20;;;;;;;;;;4995220;28;20383;-51
2022/03/26 07:07:01;;;;;;;38.63;18.25;;;;;;;;;;4996176;28;20023;-52
2022/03/26 07:09:27;;;;;;;32.85;17.65;;;;;;;;;;4996144;28;20018;-50
2022/03/26 07:11:53;;;;;;;33.17;18.10;;;;;;;;;;4996201;28;20053;-54
2022/03/26 07:14:19;;;;;;;32.03;18.08;;;;;;;;;;4995346;28;20030;-52
2022/03/26 07:16:45;;;;;;;35.47;18.33;;;;;;;;;;4996060;28;20018;-54
2022/03/26 07:19:12;;;;;;;31.17;17.25;;;;;;;;;;4996194;28;20026;-52
2022/03/26 07:21:39;;;;;;;35.47;18.25;;;;;;;;;;4995562;28;20033;-56
2022/03/26 07:24:06;;;;;;;29.25;16.33;;;;;;;;;;4996200;28;20033;-56
2022/03/26 07:26:32;;;;;;;31.80;15.95;;;;;;;;;;4995778;28;20033;-56
2022/03/26 07:28:58;;;;;;;31.40;17.02;;;;;;;;;;4995851;28;20022;-54
2022/03/26 07:31:24;;;;;;;32.90;16.98;;;;;;;;;;4996137;28;20042;-50
2022/03/26 07:33:51;;;;;;;30.60;15.73;;;;;;;;;;4994851;28;20066;-50
2022/03/26 07:36:17;;;;;;;31.08;15.25;;;;;;;;;;4995620;28;20345;-49
2022/03/26 07:38:43;;;;;;;31.67;17.05;;;;;;;;;;4995880;28;20105;-49
2022/03/26 07:41:09;;;;;;;40.72;18.65;;;;;;;;;;4995553;28;20501;-52
2022/03/26 07:43:36;;;;;;;36.30;15.90;;;;;;;;;;4995138;28;20037;-51
2022/03/26 07:46:02;;;;;;;29.15;13.65;;;;;;;;;;4994736;28;20495;-53
2022/03/26 07:48:28;;;;;;;26.40;14.05;;;;;;;;;;4994690;28;20023;-57
2022/03/26 07:50:54;;;;;;;26.70;14.65;;;;;;;;;;4993904;28;20029;-56
2022/03/26 07:53:22;;;;;;;26.05;13.75;;;;;;;;;;4994873;28;20377;-54
2022/03/26 07:55:49;;;;;;;25.48;14.00;;;;;;;;;;4995208;28;20030;-51
2022/03/26 07:58:15;;;;;;;29.80;13.93;;;;;;;;;;4995365;28;20444;-53
2022/03/26 08:00:41;;;;;;;28.33;14.98;;;;;;;;;;4995520;28;20014;-53
2022/03/26 08:03:08;;;;;;;23.95;13.60;;;;;;;;;;4993832;28;20026;-56
2022/03/26 08:05:34;;;;;;;32.72;15.25;;;;;;;;;;4994641;28;20037;-50
2022/03/26 08:08:00;;;;;;;29.45;14.60;;;;;;;;;;4993960;28;20027;-54
2022/03/26 08:10:27;;;;;;;32.60;16.23;;;;;;;;;;4994625;28;20026;-51
2022/03/26 08:12:53;;;;;;;26.08;15.30;;;;;;;;;;4995308;28;20019;-54
2022/03/26 08:15:20;;;;;;;34.55;17.00;;;;;;;;;;4995315;28;20061;-52
2022/03/26 08:17:46;;;;;;;26.58;15.15;;;;;;;;;;4994649;28;20411;-63
2022/03/26 08:20:12;;;;;;;33.20;16.58;;;;;;;;;;4994792;28;20030;-54
2022/03/26 08:22:41;;;;;;;39.28;18.05;;;;;;;;;;4993086;28;20081;-55
2022/03/26 08:25:09;;;;;;;31.38;16.33;;;;;;;;;;4994548;28;20538;-56
2022/03/26 08:27:36;;;;;;;28.73;15.50;;;;;;;;;;4994686;28;20480;-52
2022/03/26 08:30:02;;;;;;;32.70;16.25;;;;;;;;;;4994582;28;20472;-54
2022/03/26 08:32:28;;;;;;;26.80;14.38;;;;;;;;;;4994615;28;20030;-51
2022/03/26 08:34:55;;;;;;;24.52;12.32;;;;;;;;;;4994511;28;20041;-49
2022/03/26 08:37:21;;;;;;;30.05;13.63;;;;;;;;;;4995023;28;20101;-54
2022/03/26 08:39:47;;;;;;;22.85;12.75;;;;;;;;;;4994557;28;20022;-55
2022/03/26 08:42:13;;;;;;;25.77;13.40;;;;;;;;;;4994725;28;20494;-57
2022/03/26 08:44:39;;;;;;;24.80;12.13;;;;;;;;;;4994280;28;20037;-55
2022/03/26 08:47:06;;;;;;;25.25;13.00;;;;;;;;;;4994133;28;20430;-53
2022/03/26 08:49:33;;;;;;;29.30;13.35;;;;;;;;;;4994659;28;20026;-54
2022/03/26 08:51:59;;;;;;;26.42;13.43;;;;;;;;;;4994341;28;20094;-54
2022/03/26 08:54:25;;;;;;;31.30;13.90;;;;;;;;;;4994566;28;20030;-55
2022/03/26 08:56:51;;;;;;;28.63;12.77;;;;;;;;;;4993979;28;20050;-57
2022/03/26 08:59:18;;;;;;;22.95;13.13;;;;;;;;;;4993489;28;20018;-56
2022/03/26 09:01:44;;;;;;;25.83;12.55;;;;;;;;;;4994336;28;20026;-57
2022/03/26 09:04:11;;;;;;;24.10;12.57;;;;;;;;;;4994559;28;20468;-64
2022/03/26 09:06:37;;;;;;;31.38;13.90;;;;;;;;;;4994145;28;20022;-55
2022/03/26 09:09:04;;;;;;;20.35;12.38;;;;;;;;;;4994194;28;20053;-53
2022/03/26 09:11:31;;;;;;;29.23;12.75;;;;;;;;;;4994003;28;20030;-51
2022/03/26 09:13:59;;;;;;;22.10;13.48;;;;;;;;;;4993972;28;20022;-54
2022/03/26 09:16:31;;;;;;;24.92;13.40;;;;;;;;;;4993947;28;20022;-58
2022/03/26 09:18:58;;;;;;;24.77;13.35;;;;;;;;;;4991513;28;20030;-56
2022/03/26 09:21:24;;;;;;;27.17;13.48;;;;;;;;;;4991300;28;20026;-54
2022/03/26 09:23:50;;;;;;;23.67;13.18;;;;;;;;;;4993097;28;20026;-53
2022/03/26 09:26:16;;;;;;;22.80;12.48;;;;;;;;;;4993249;28;20022;-56
2022/03/26 09:28:44;;;;;;;22.05;12.25;;;;;;;;;;4993506;28;20169;-54
2022/03/26 09:31:10;;;;;;;29.77;13.40;;;;;;;;;;4993210;28;20029;-51
2022/03/26 09:33:36;;;;;;;29.15;12.38;;;;;;;;;;4990946;28;20050;-53
2022/03/26 09:36:03;;;;;;;22.05;12.73;;;;;;;;;;4990966;28;20434;-52
2022/03/26 09:38:29;;;;;;;20.65;11.70;;;;;;;;;;4991632;28;20519;-55
2022/03/26 09:40:56;;;;;;;21.60;11.45;;;;;;;;;;4991742;28;20145;-50
2022/03/26 09:43:23;;;;;;;25.58;12.80;;;;;;;;;;4992382;28;20034;-53
2022/03/26 09:45:49;;;;;;;26.33;11.15;;;;;;;;;;4992270;28;20015;-55
2022/03/26 09:48:15;;;;;;;20.88;10.95;;;;;;;;;;4992181;28;20019;-54
2022/03/26 09:50:43;;;;;;;21.13;11.50;;;;;;;;;;4992614;28;20105;-57
2022/03/26 09:53:13;;;;;;;24.00;11.65;;;;;;;;;;4992732;28;20023;-58
2022/03/26 09:55:40;;;;;;;21.60;10.98;;;;;;;;;;4991844;28;20038;-54
2022/03/26 09:58:06;;;;;;;20.17;11.02;;;;;;;;;;4990131;28;20046;-54
2022/03/26 10:00:33;;;;;;;24.50;10.98;;;;;;;;;;4992772;28;20030;-53
2022/03/26 10:02:59;;;;;;;22.50;12.02;;;;;;;;;;4991983;28;20379;-52
2022/03/26 10:05:36;;;;;;;26.50;10.85;;;;;;;;;;4992201;28;20026;-62
2022/03/26 10:08:17;;;;;;;22.33;11.13;;;;;;;;;;4992208;28;20065;-55
2022/03/26 10:10:46;;;;;;;20.48;11.35;;;;;;;;;;4996185;28;20102;-51
2022/03/26 10:13:13;;;;;;;24.20;11.35;;;;;;;;;;4995959;28;20105;-52
2022/03/26 10:15:59;;;;;;;23.45;11.07;;;;;;;;;;4995695;28;20041;-53
2022/03/26 10:18:25;;;;;;;19.40;10.30;;;;;;;;;;4995923;28;20048;-55
2022/03/26 10:20:58;;;;;;;18.40;10.45;;;;;;;;;;4996096;28;20375;-57
2022/03/26 10:23:28;;;;;;;21.52;10.75;;;;;;;;;;4995360;28;20025;-55
2022/03/26 10:26:11;;;;;;;23.75;10.90;;;;;;;;;;4996027;28;20041;-53
2022/03/26 10:28:40;;;;;;;18.40;10.07;;;;;;;;;;4994575;28;20081;-57
2022/03/26 10:34:09;;;;;;;21.60;10.02;;;;;;;;;;4994504;28;20161;-54
2022/03/26 10:36:39;;;;;;;17.73;9.48;;;;;;;;;;4994079;28;20042;-55
2022/03/26 10:39:06;;;;;;;20.88;10.18;;;;;;;;;;4995664;28;20046;-53
2022/03/26 10:41:33;;;;;;;17.77;9.18;;;;;;;;;;4995726;28;20061;-56
2022/03/26 10:44:07;;;;;;;18.10;8.88;;;;;;;;;;4995329;28;20014;-53
2022/03/26 10:46:41;;;;;;;17.70;9.07;;;;;;;;;;4993490;28;20030;-54
2022/03/26 10:49:07;;;;;;;17.75;8.82;;;;;;;;;;4992934;28;20022;-56
2022/03/26 10:51:38;;;;;;;18.42;9.25;;;;;;;;;;4995306;28;20026;-52
2022/03/26 10:54:15;;;;;;;18.52;9.05;;;;;;;;;;4995379;28;20117;-56
2022/03/26 10:56:42;;;;;;;21.85;11.15;;;;;;;;;;4995184;28;20058;-53
2022/03/26 10:59:08;;;;;;;20.15;9.40;;;;;;;;;;4992861;28;20023;-55
2022/03/26 11:01:35;;;;;;;31.63;9.75;;;;;;;;;;4995055;28;20033;-53
2022/03/26 11:04:15;;;;;;;16.55;9.43;;;;;;;;;;4995535;28;20443;-58
2022/03/26 11:06:42;;;;;;;16.85;9.93;;;;;;;;;;4993987;28;20056;-54
2022/03/26 11:09:09;;;;;;;13.95;8.73;;;;;;;;;;4992739;28;20367;-52
2022/03/26 11:11:36;;;;;;;18.42;8.32;;;;;;;;;;4994993;28;20027;-55
2022/03/26 11:14:10;;;;;;;17.73;8.45;;;;;;;;;;4994723;28;20109;-57
2022/03/26 11:16:47;;;;;;;12.85;7.70;;;;;;;;;;4995040;28;20014;-55
2022/03/26 11:19:41;;;;;;;17.30;8.80;;;;;;;;;;4992835;28;20061;-58
2022/03/26 11:22:25;;;;;;;13.90;8.43;;;;;;;;;;4991854;28;20026;-57
2022/03/26 11:24:54;;;;;;;14.75;8.85;;;;;;;;;;4991549;28;20037;-54
2022/03/26 11:27:35;;;;;;;14.32;8.60;;;;;;;;;;4993249;28;20384;-57
2022/03/26 11:30:06;;;;;;;13.70;8.45;;;;;;;;;;4991949;28;20375;-56
2022/03/26 11:32:34;;;;;;;;;;;;;;;;;;4992592;28;20097;-57
2022/03/26 11:35:24;;;;;;;13.85;8.13;;;;;;;;;;4994568;28;19913;-57
2022/03/26 11:37:56;;;;;;;11.13;7.22;;;;;;;;;;4991888;28;20023;-57
2022/03/26 11:40:42;;;;;;;17.65;7.55;;;;;;;;;;4993141;28;20046;-57
2022/03/26 11:43:08;;;;;;;15.98;7.78;;;;;;;;;;4995210;28;20026;-55
2022/03/26 11:51:20;;;;;;;12.75;7.32;;;;;;;;;;4995780;28;20106;-57
2022/03/26 11:53:52;;;;;;;12.05;7.30;;;;;;;;;;4995111;28;20022;-57
2022/03/26 11:56:36;;;;;;;16.08;8.05;;;;;;;;;;4995185;28;20030;-55
2022/03/26 11:59:20;;;;;;;14.93;7.03;;;;;;;;;;4995552;28;20167;-57
2022/03/26 12:01:47;;;;;;;16.23;7.47;;;;;;;;;;4994737;28;20084;-57
2022/03/26 12:04:26;;;;;;;13.02;7.57;;;;;;;;;;4995200;28;20112;-57
2022/03/26 12:06:52;;;;;;;13.18;7.18;;;;;;;;;;4995028;28;20045;-57
2022/03/26 12:09:38;;;;;;;12.80;7.20;;;;;;;;;;4994327;28;20023;-54
2022/03/26 12:12:05;;;;;;;16.20;5.80;;;;;;;;;;4995389;28;20022;-58
2022/03/26 12:14:31;;;;;;;9.77;4.80;;;;;;;;;;4994785;28;20038;-59
2022/03/26 12:16:58;;;;;;;8.95;5.57;;;;;;;;;;4994807;28;20080;-55
2022/03/26 12:19:43;;;;;;;9.98;5.22;;;;;;;;;;4995392;28;20164;-53
2022/03/26 12:22:18;;;;;;;9.32;4.47;;;;;;;;;;4995116;28;20030;-57
2022/03/26 12:24:45;;;;;;;9.45;5.38;;;;;;;;;;4994841;28;20030;-57
2022/03/26 12:27:11;;;;;;;12.07;5.30;;;;;;;;;;4995001;28;20022;-55
2022/03/26 12:29:40;;;;;;;9.40;5.90;;;;;;;;;;4994664;28;20029;-58
2022/03/26 12:32:07;;;;;;;9.07;5.50;;;;;;;;;;4994288;28;20106;-55
2022/03/26 12:34:33;;;;;;;9.00;5.30;;;;;;;;;;4994601;28;20039;-58
2022/03/26 12:37:03;;;;;;;5.68;3.55;;;;;;;;;;4994433;28;20034;-58
2022/03/26 12:39:29;;;;;;;9.07;4.23;;;;;;;;;;4995136;28;20065;-57
2022/03/26 12:41:56;;;;;;;11.43;4.00;;;;;;;;;;4995312;28;20037;-59
2022/03/26 12:44:23;;;;;;;11.80;4.47;;;;;;;;;;4994392;28;20034;-52
2022/03/26 12:46:50;;;;;;;24.65;5.00;;;;;;;;;;4995263;28;20106;-56
2022/03/26 12:49:19;;;;;;;22.13;4.97;;;;;;;;;;4994738;28;20053;-53
2022/03/26 12:51:49;;;;;;;14.85;5.55;;;;;;;;;;4993859;28;20026;-56
2022/03/26 12:54:16;;;;;;;10.30;5.05;;;;;;;;;;4994019;28;20027;-59
2022/03/26 12:56:43;;;;;;;11.32;4.60;;;;;;;;;;4993952;28;20046;-55
2022/03/26 12:59:09;;;;;;;7.78;4.47;;;;;;;;;;4994323;28;20022;-55
2022/03/26 13:01:36;;;;;;;9.50;4.28;;;;;;;;;;4994865;28;20471;-57
2022/03/26 13:04:03;;;;;;;9.90;4.75;;;;;;;;;;4994125;28;20029;-56
2022/03/26 13:06:29;;;;;;;13.25;6.13;;;;;;;;;;4994270;28;20475;-57
2022/03/26 13:08:57;;;;;;;9.68;4.95;;;;;;;;;;4994443;28;20441;-54
2022/03/26 13:11:24;;;;;;;14.02;5.18;;;;;;;;;;4992600;28;20023;-53
2022/03/26 13:13:51;;;;;;;8.88;4.88;;;;;;;;;;4994548;28;20042;-56
2022/03/26 13:16:19;;;;;;;10.32;4.80;;;;;;;;;;4994509;28;20029;-58
2022/03/26 13:18:49;;;;;;;6.80;4.20;;;;;;;;;;4991984;28;20019;-54
2022/03/26 13:21:19;;;;;;;10.52;4.75;;;;;;;;;;4993609;28;20043;-56
2022/03/26 13:23:55;;;;;;;11.70;5.00;;;;;;;;;;4993950;28;20022;-59
2022/03/26 13:26:22;;;;;;;8.90;4.28;;;;;;;;;;4993647;28;20030;-52
2022/03/26 13:28:48;;;;;;;18.65;4.90;;;;;;;;;;4992970;28;20026;-56
2022/03/26 13:31:19;;;;;;;11.13;4.40;;;;;;;;;;4994393;28;20030;-58
2022/03/26 13:33:45;;;;;;;8.68;4.38;;;;;;;;;;4993620;28;20034;-58
2022/03/26 13:36:12;;;;;;;12.60;4.72;;;;;;;;;;4993499;28;20022;-58
2022/03/26 13:38:39;;;;;;;8.10;4.40;;;;;;;;;;4993765;28;20061;-57
2022/03/26 13:41:19;;;;;;;7.60;4.10;;;;;;;;;;4993164;28;20029;-58
2022/03/26 13:43:46;;;;;;;10.02;4.18;;;;;;;;;;4997164;28;20014;-57
2022/03/26 13:46:13;;;;;;;8.07;4.20;;;;;;;;;;4997765;28;20030;-57
2022/03/26 13:48:49;;;;;;;8.13;4.88;;;;;;;;;;4997184;28;20026;-53
2022/03/26 13:51:15;;;;;;;9.02;5.13;;;;;;;;;;4998640;28;20029;-56
2022/03/26 13:53:42;;;;;;;10.38;4.80;;;;;;;;;;4997494;28;20033;-53
2022/03/26 13:56:09;;;;;;;9.45;4.68;;;;;;;;;;4998052;28;20128;-54
2022/03/26 13:58:35;;;;;;;8.82;4.90;;;;;;;;;;4997971;28;20488;-57
2022/03/26 14:01:05;;;;;;;7.47;4.95;;;;;;;;;;4997599;28;20102;-58
2022/03/26 14:03:36;;;;;;;8.27;4.85;;;;;;;;;;4997858;28;20048;-54
2022/03/26 14:06:02;;;;;;;7.30;5.03;;;;;;;;;;4997739;28;20042;-58
2022/03/26 14:08:28;;;;;;;9.85;5.20;;;;;;;;;;4997124;28;20033;-55
2022/03/26 14:10:55;;;;;;;11.50;5.97;;;;;;;;;;4997877;28;20031;-54
2022/03/26 14:13:21;;;;;;;8.75;5.55;;;;;;;;;;4997102;28;20077;-56
2022/03/26 14:15:51;;;;;;;10.63;5.68;;;;;;;;;;4997861;28;20037;-55
2022/03/26 14:18:21;;;;;;;11.40;5.40;;;;;;;;;;4997541;28;20034;-56
2022/03/26 14:20:48;;;;;;;10.13;6.20;;;;;;;;;;4997207;28;20030;-56
2022/03/26 14:23:14;;;;;;;11.85;6.00;;;;;;;;;;4997147;28;20475;-57
2022/03/26 14:25:41;;;;;;;10.07;6.40;;;;;;;;;;4997744;28;20038;-56
2022/03/26 14:28:08;;;;;;;9.80;5.70;;;;;;;;;;4997032;28;20030;-59
2022/03/26 14:30:35;;;;;;;16.65;6.10;;;;;;;;;;4997267;28;20053;-56
2022/03/26 14:33:01;;;;;;;11.00;5.70;;;;;;;;;;4997191;28;20027;-56
2022/03/26 14:35:28;;;;;;;11.57;5.75;;;;;;;;;;4996501;28;20035;-57